Station PTLA2 - Portland Island, AK Image indicating link to RSS feed of recent meteorological observations for station PTLA2


Conditions at PTLA2 as of
(7:02 am AKDT)
1502 GMT on 07/23/2024:
     

Click on the graph icon in the table below to see a time series plot of the last five days of that observation.

5-day plot - Wind Direction Wind Direction (WDIR): SE ( 140 deg true )
5-day plot - Wind Speed Wind Speed (WSPD): 2.9 kts
5-day plot - Wind Gust Wind Gust (GST): 7.0 kts
5-day plot - Air Temperature Air Temperature (ATMP): 55.0 °F
5-day plot - Dew Point Dew Point (DEWP): 53.4 °F
5-day plot - Wind Speed at 10 Meters Wind Speed at 10 meters (WSPD10M): 3.9 kts
5-day plot - Wind Speed at 20 Meters Wind Speed at 20 meters (WSPD20M): 3.9 kts
5-day plot -  Wind Speed, Wind Gust and Atmospheric Pressure Combined plot of Wind Speed, Gust, and Air Pressure
Previous observations
TIME
(AKDT)
5-day plot - Wind Direction
WDIR
 
5-day plot - Wind Speed
WSPD
kts
5-day plot - Wind Gust
GST
kts
5-day plot - Wave Height
WVHT
ft
5-day plot - Dominant Wave Period
DPD
sec
5-day plot - Average Wave Period
APD
sec
5-day plot - Mean Wave Direction
MWD
 
5-day plot - Atmospheric Pressure
PRES
in
5-day plot - Pressure Tendency
PTDY
in
5-day plot - Air Temperature
ATMP
°F
5-day plot - Water Temperature
WTMP
°F
5-day plot - Dew Point
DEWP
°F
5-day plot - Salinity
SAL
psu
5-day plot - Visibility
VIS
nmi
5-day plot - Tide (above MLLW)
TIDE
ft
2024-07-23 06:52 am SE 2.9 7.0------ 54.9- 53.2---
2024-07-23 06:42 amSSE 2.9 8.9------ 54.9- 53.2---
2024-07-23 06:32 am SE 4.1 8.9------ 54.9- 53.2---
2024-07-23 06:12 am SE 2.9 8.9------ 55.0- 53.4---
2024-07-23 06:02 amSSE 2.9 7.0------ 55.0- 53.4---
2024-07-23 05:52 amSSE 2.9 8.9------ 55.0- 53.4---
2024-07-23 05:42 am SE 2.9 8.0------ 55.2- 53.2---
2024-07-23 05:32 am SE 2.9 7.0------ 55.4- 53.4---
2024-07-23 05:22 amESE 4.1 8.0------ 55.4- 53.4---
2024-07-23 05:12 am SE 2.9 8.0------ 55.6- 53.6---
2024-07-23 05:02 am SE 2.9 7.0------ 55.6- 53.4---
2024-07-23 04:52 amSSE 2.9 9.9------ 55.6- 53.2---
2024-07-23 04:42 am S 5.1 12.0------ 55.6- 53.2---
2024-07-23 04:32 am S 5.1 15.0------ 55.6- 53.2---
2024-07-23 04:22 amSSE 4.1 9.9------ 55.6- 53.1---
2024-07-23 04:12 amSSE 5.1 17.1------ 55.4- 53.2---
2024-07-23 04:02 am SE 4.1 8.0------ 55.6- 53.2---
2024-07-23 03:52 am SE 2.9 9.9------ 55.4- 53.4---
2024-07-23 03:42 amSSE 2.9 7.0------ 55.4- 53.4---
2024-07-23 03:32 am SE 1.9 5.1------ 55.6- 53.4---
2024-07-23 03:22 am SE 2.9 6.0------ 55.8- 53.4---
2024-07-23 03:12 am SE 1.9 4.1------ 56.1- 53.6---
2024-07-23 03:02 am SE 1.9 4.1------ 56.3- 53.4---
2024-07-23 02:52 amESE 4.1 11.1------ 56.5- 53.2---
2024-07-23 02:42 am SE 2.9 7.0------ 56.8- 53.1---
2024-07-23 02:32 am SE 1.9 5.1------ 56.8- 53.1---
2024-07-23 02:22 amESE 2.9 8.0------ 56.8- 52.9---
2024-07-23 02:12 am SE 2.9 8.0------ 56.5- 52.9---
2024-07-23 02:02 am SE 2.9 7.0------ 56.3- 52.9---
2024-07-23 01:52 amSSE 1.9 6.0------ 55.8- 52.5---
2024-07-23 01:42 am S 2.9 6.0------ 55.4- 52.0---
2024-07-23 01:32 amSSE 1.9 8.0------ 56.7- 52.7---
2024-07-23 01:22 am E 2.9 8.0------ 56.7- 52.5---
2024-07-23 01:12 am E 2.9 7.0------ 57.2- 52.3---
2024-07-23 01:02 amESE 1.9 5.1------ 57.0- 52.5---
2024-07-23 12:52 amESE 1.9 4.1------ 56.8- 52.3---
2024-07-23 12:42 am SE 1.9 4.1------ 56.5- 52.0---
2024-07-23 12:32 amESE 1.9 4.1------ 56.5- 52.0---
2024-07-23 12:22 amESE 2.9 5.1------ 56.7- 52.0---
2024-07-23 12:12 amSSE 1.9 5.1------ 56.8- 52.3---
2024-07-23 12:02 am S 2.9 6.0------ 55.4- 51.4---
2024-07-22 11:52 pmSSE 2.9 6.0------ 57.6- 52.3---
2024-07-22 11:42 pm S 2.9 6.0------ 57.9- 52.5---
2024-07-22 11:32 pm S 2.9 6.0------ 58.5- 52.5---
2024-07-22 11:22 pmSSE 1.9 5.1------ 59.2- 52.7---
2024-07-22 11:12 pmSSE 2.9 8.0------ 58.3- 52.5---
2024-07-22 11:02 pm S 2.9 7.0------ 58.3- 52.5---
2024-07-22 10:52 pmSSE 2.9 6.0------ 58.5- 52.5---
2024-07-22 10:42 pmSSE 1.9 5.1------ 58.3- 52.5---
2024-07-22 10:32 pm S 4.1 6.0------ 57.9- 52.5---
2024-07-22 10:22 pm S 4.1 8.0------ 58.1- 52.7---
2024-07-22 10:02 pmSSE 1.9 6.0------ 58.3- 52.9---
2024-07-22 09:52 pmSSE 1.9 6.0------ 59.0- 53.6---
2024-07-22 09:42 pmESE 1.9 5.1------ 59.5- 53.8---
2024-07-22 09:32 pm SE 1.9 6.0------ 59.9- 53.6---
2024-07-22 09:22 pm SE 1.9 5.1------ 59.5- 53.6---
2024-07-22 09:12 pm SE 1.9 4.1------ 59.4- 53.2---
2024-07-22 09:02 pm SE 2.9 8.0------ 59.0- 53.1---
2024-07-22 08:52 pmESE 1.9 5.1------ 59.2- 53.4---
2024-07-22 08:42 pmESE 2.9 6.0------ 59.4- 53.6---
2024-07-22 08:32 pm SE 1.9 5.1------ 59.5- 53.6---
2024-07-22 08:22 pmESE 1.9 6.0------ 59.9- 54.0---
2024-07-22 08:12 pmESE 1.9 6.0------ 60.3- 54.1---
2024-07-22 08:02 pm SE 1.9 6.0------ 59.7- 54.1---
2024-07-22 07:52 pm SE 1.9 6.0------ 59.9- 54.1---
2024-07-22 07:42 pm SE 1.9 5.1------ 60.1- 54.3---
2024-07-22 07:32 pmESE 1.9 5.1------ 60.6- 54.5---
2024-07-22 07:22 pm SE 1.9 4.1------ 60.6- 54.7---
2024-07-22 07:12 pmESE 1.9 5.1------ 60.8- 54.5---
2024-07-22 07:02 pmESE 1.9 5.1------ 61.0- 54.7---
2024-07-22 06:52 pmESE 1.9 5.1------ 61.3- 54.9---
2024-07-22 06:42 pmESE 1.9 5.1------ 61.9- 55.0---
2024-07-22 06:32 pm SE 1.9 5.1------ 62.1- 54.3---
2024-07-22 06:22 pm SE 1.9 4.1------ 63.3- 54.5---
2024-07-22 06:12 pmSSE 1.9 4.1------ 63.5- 54.3---
2024-07-22 06:02 pm SE 1.9 6.0------ 63.1- 54.3---
2024-07-22 05:52 pm SE 1.9 6.0------ 63.3- 54.3---
2024-07-22 05:42 pm SE 1.9 6.0------ 63.1- 54.3---
2024-07-22 05:32 pm SE 1.9 6.0------ 63.0- 54.3---
2024-07-22 05:22 pmSSE 1.9 6.0------ 62.6- 54.1---
2024-07-22 05:12 pm SE 2.9 7.0------ 62.6- 54.1---
2024-07-22 05:02 pm SE 2.9 7.0------ 62.2- 54.3---
2024-07-22 04:52 pm SE 1.9 7.0------ 61.9- 54.7---
2024-07-22 04:42 pmSSE 1.9 7.0------ 62.2- 54.9---
2024-07-22 04:32 pmSSE 2.9 6.0------ 61.9- 54.9---
2024-07-22 04:22 pmSSE 2.9 8.0------ 61.9- 54.9---
2024-07-22 04:12 pmSSE 2.9 8.9------ 61.7- 54.9---
2024-07-22 03:52 pmSSE 1.9 7.0------ 62.6- 55.4---
2024-07-22 03:42 pmSSE 2.9 8.0------ 62.8- 55.4---
2024-07-22 03:32 pmSSE 2.9 7.0------ 63.0- 55.4---
2024-07-22 03:22 pmSSE 2.9 7.0------ 63.0- 55.4---
2024-07-22 03:12 pmSSE 2.9 8.0------ 62.8- 55.4---
2024-07-22 03:02 pm S 2.9 7.0------ 62.2- 55.6---
2024-07-22 02:52 pm S 1.9 7.0------ 62.6- 55.6---
2024-07-22 02:42 pmSSE 1.9 7.0------ 63.7- 56.1---
2024-07-22 02:32 pmSSE 2.9 8.9------ 63.3- 56.1---
2024-07-22 02:22 pmSSE 2.9 8.0------ 63.5- 56.1---
2024-07-22 02:12 pmSSE 2.9 8.0------ 63.5- 56.3---
2024-07-22 02:02 pm S 2.9 8.0------ 63.9- 56.7---
2024-07-22 01:52 pmSSE 2.9 8.9------ 64.6- 56.8---
2024-07-22 01:42 pmSSE 2.9 7.0------ 64.9- 57.0---
2024-07-22 01:32 pmSSE 2.9 8.0------ 64.6- 56.8---
2024-07-22 01:22 pmSSE 1.9 7.0------ 64.0- 56.5---
2024-07-22 01:12 pmSSE 2.9 8.9------ 63.3- 56.3---
2024-07-22 01:02 pm S 2.9 8.9------ 62.8- 55.9---
2024-07-22 12:52 pm S 2.9 8.0------ 62.8- 56.1---
2024-07-22 12:42 pm S 2.9 7.0------ 63.3- 56.5---
2024-07-22 12:32 pmSSE 2.9 9.9------ 62.8- 55.8---
2024-07-22 12:22 pmSSE 2.9 7.0------ 62.6- 55.6---
2024-07-22 12:12 pm S 2.9 8.0------ 62.4- 56.1---
2024-07-22 12:02 pm S 2.9 8.0------ 62.2- 56.5---
2024-07-22 11:52 am S 2.9 8.9------ 61.5- 56.1---
2024-07-22 11:42 am S 2.9 7.0------ 60.6- 55.6---
2024-07-22 11:32 am S 2.9 7.0------ 60.4- 55.4---
2024-07-22 11:22 am S 2.9 7.0------ 60.1- 55.2---
2024-07-22 11:12 am S 4.1 7.0------ 60.1- 54.9---
2024-07-22 11:02 am S 2.9 7.0------ 60.4- 54.9---
2024-07-22 10:52 am S 2.9 6.0------ 60.4- 54.7---
2024-07-22 10:32 am S 2.9 6.0------ 61.2- 55.0---
2024-07-22 10:22 am S 1.9 5.1------ 60.4- 54.7---
2024-07-22 10:12 am S 1.9 5.1------ 59.9- 54.7---
2024-07-22 10:02 am S 2.9 6.0------ 59.0- 54.1---
2024-07-22 09:52 am S 4.1 6.0------ 58.8- 53.6---
2024-07-22 09:42 am S 1.9 5.1------ 60.4- 54.3---
2024-07-22 09:32 am NE 1.0 4.1------ 60.6- 54.5---
2024-07-22 09:22 am S 1.9 5.1------ 59.2- 53.8---
2024-07-22 09:12 am S 1.9 4.1------ 58.6- 53.1---
2024-07-22 09:02 am S 2.9 4.1------ 58.8- 53.1---
2024-07-22 08:52 amSSE 1.9 2.9------ 59.9- 54.0---
2024-07-22 08:42 amSSE 1.9 4.1------ 59.7- 54.0---
2024-07-22 08:32 amSSE 1.0 2.9------ 58.6- 54.5---
2024-07-22 08:22 am E 1.9 4.1------ 57.9- 54.3---
2024-07-22 08:12 amESE 1.9 4.1------ 58.1- 54.3---
2024-07-22 08:02 am E 1.9 4.1------ 58.6- 54.5---
2024-07-22 07:52 amSSE 1.0 2.9------ 57.7- 53.8---
2024-07-22 07:42 am S 2.9 5.1------ 57.2- 53.4---
2024-07-22 07:32 amSSE 1.0 2.9------ 57.6- 53.4---
2024-07-22 07:22 am SE 1.0 1.9------ 57.4- 53.2---
2024-07-22 07:12 am SE 1.0 2.9------ 57.0- 53.1---
2024-07-22 07:02 am SE 1.9 4.1------ 56.7- 52.9---
2024-07-22 06:52 amESE 1.9 4.1------ 56.7- 52.7---